createdAt,value
2022-09-07T00:00:16.114Z,6.77
2022-09-07T00:02:45.959Z,5.43
2022-09-07T00:05:15.799Z,5.17
2022-09-07T00:07:45.587Z,7.50
2022-09-07T00:10:15.124Z,4.53
2022-09-07T00:12:44.900Z,3.80
2022-09-07T00:15:15.002Z,4.17
2022-09-07T00:17:44.777Z,4.23
2022-09-07T00:20:15.012Z,6.83
2022-09-07T00:22:46.151Z,4.00
2022-09-07T00:25:16.072Z,3.80
2022-09-07T00:27:45.597Z,6.00
2022-09-07T00:30:16.380Z,7.03
2022-09-07T00:32:46.315Z,4.23
2022-09-07T00:35:16.405Z,3.45
2022-09-07T00:37:46.179Z,5.13
2022-09-07T00:40:17.621Z,2.92
2022-09-07T00:42:47.396Z,3.00
2022-09-07T00:45:22.409Z,6.05
2022-09-07T00:48:00.746Z,3.43
2022-09-07T00:50:39.448Z,2.85
2022-09-07T00:53:29.920Z,5.67
2022-09-07T00:56:02.034Z,3.50
2022-09-07T00:58:34.056Z,5.47
2022-09-07T01:01:03.917Z,4.50
2022-09-07T01:03:36.409Z,4.15
2022-09-07T01:06:20.623Z,3.47
2022-09-07T01:08:51.412Z,3.22
2022-09-07T01:11:23.826Z,4.83
2022-09-07T01:13:54.736Z,4.57
2022-09-07T01:16:49.417Z,3.17
2022-09-07T01:19:31.085Z,5.33
2022-09-07T01:22:13.026Z,4.72
2022-09-07T01:24:48.296Z,4.57
2022-09-07T01:27:48.083Z,4.57
2022-09-07T01:30:20.918Z,2.70
2022-09-07T01:33:02.860Z,3.40
2022-09-07T01:35:44.111Z,7.10
2022-09-07T01:38:27.343Z,5.83
2022-09-07T01:41:12.168Z,3.83
2022-09-07T01:43:50.744Z,7.30
2022-09-07T01:46:29.306Z,4.57
2022-09-07T01:49:11.094Z,5.70
2022-09-07T01:51:43.904Z,5.00
2022-09-07T01:54:18.111Z,4.47
2022-09-07T01:56:51.095Z,7.17
2022-09-07T01:59:26.280Z,3.40
2022-09-07T02:02:13.639Z,5.67
2022-09-07T02:04:52.046Z,8.73
2022-09-07T02:07:27.278Z,4.90
2022-09-07T02:10:02.513Z,4.10
2022-09-07T02:12:37.425Z,4.58
2022-09-07T02:15:11.415Z,4.30
2022-09-07T02:17:46.760Z,5.20
2022-09-07T02:20:21.739Z,6.05
2022-09-07T02:22:54.618Z,7.57
2022-09-07T02:25:27.311Z,6.47
2022-09-07T02:28:00.117Z,5.67
2022-09-07T02:30:29.685Z,5.30
2022-09-07T02:32:59.446Z,6.33
2022-09-07T02:35:29.856Z,4.28
2022-09-07T02:38:03.487Z,4.80
2022-09-07T02:40:33.690Z,5.85
2022-09-07T02:43:06.651Z,4.70
2022-09-07T02:46:00.305Z,3.60
2022-09-07T02:48:36.009Z,2.98
2022-09-07T02:51:11.030Z,4.43
2022-09-07T02:54:03.169Z,4.13
2022-09-07T02:56:44.473Z,5.12
2022-09-07T02:59:32.173Z,4.17
2022-09-07T03:02:30.252Z,3.77
2022-09-07T03:05:14.861Z,5.90
2022-09-07T03:08:05.673Z,4.43
2022-09-07T03:10:36.985Z,3.58
2022-09-07T03:13:07.195Z,5.17
2022-09-07T03:15:37.016Z,3.67
2022-09-07T03:18:08.567Z,5.94
2022-09-07T03:20:38.322Z,3.50
2022-09-07T03:23:08.154Z,3.70
2022-09-07T03:25:38.516Z,4.97
2022-09-07T03:28:08.785Z,4.23
2022-09-07T03:30:40.164Z,3.23
2022-09-07T03:33:09.983Z,2.87
2022-09-07T03:35:39.744Z,3.00
2022-09-07T03:38:10.876Z,4.78
2022-09-07T03:40:40.927Z,3.47
2022-09-07T03:43:10.704Z,4.97
2022-09-07T03:45:40.579Z,3.17
2022-09-07T03:48:11.476Z,3.75
2022-09-07T03:50:41.233Z,3.17
2022-09-07T03:53:11.002Z,3.20
2022-09-07T03:55:40.847Z,5.73
2022-09-07T03:58:11.481Z,3.92
2022-09-07T04:00:43.073Z,5.50
2022-09-07T04:03:12.837Z,5.30
2022-09-07T04:05:42.592Z,2.37
2022-09-07T04:08:13.065Z,2.58
2022-09-07T04:10:43.392Z,3.75
2022-09-07T04:13:13.464Z,4.95
2022-09-07T04:15:42.932Z,2.55
2022-09-07T04:18:13.137Z,3.75
2022-09-07T04:20:42.974Z,2.80
2022-09-07T04:23:13.502Z,3.12
2022-09-07T04:25:53.305Z,4.30
2022-09-07T04:28:23.066Z,3.70
2022-09-07T04:30:52.905Z,4.43
2022-09-07T04:33:22.988Z,5.83
2022-09-07T04:35:52.755Z,3.17
2022-09-07T04:38:22.365Z,3.67
2022-09-07T04:40:53.660Z,5.67
2022-09-07T04:43:23.554Z,4.60
2022-09-07T04:45:53.352Z,4.77
2022-09-07T04:48:23.192Z,4.92
2022-09-07T04:50:53.254Z,3.65
2022-09-07T04:53:23.019Z,9.93
2022-09-07T04:55:52.857Z,7.90
2022-09-07T04:58:22.632Z,5.70
2022-09-07T05:00:52.459Z,9.13
2022-09-07T05:03:22.520Z,5.20
2022-09-07T05:05:52.285Z,8.20
2022-09-07T05:08:22.057Z,8.88
2022-09-07T05:10:56.643Z,7.33
2022-09-07T05:13:26.415Z,12.00
2022-09-07T05:15:56.225Z,7.67
2022-09-07T05:18:26.263Z,8.77
2022-09-07T05:20:56.329Z,11.25
2022-09-07T05:23:26.172Z,13.33
2022-09-07T05:25:55.943Z,7.97
2022-09-07T05:28:25.708Z,8.58
2022-09-07T05:35:59.561Z,10.33
2022-09-07T05:38:29.878Z,12.05
2022-09-07T05:40:59.727Z,15.60
2022-09-07T05:43:30.897Z,10.85
2022-09-07T05:46:00.738Z,10.10
2022-09-07T05:48:31.198Z,11.90
2022-09-07T05:51:01.128Z,11.43
2022-09-07T05:53:31.233Z,13.43
2022-09-07T05:56:06.461Z,13.75
2022-09-07T05:58:33.364Z,12.82
2022-09-07T06:01:06.325Z,14.00
2022-09-07T06:03:40.581Z,13.80
2022-09-07T06:06:12.675Z,12.50
2022-09-07T06:08:47.761Z,11.10
2022-09-07T06:11:23.310Z,14.23
2022-09-07T06:13:53.470Z,14.67
2022-09-07T06:16:23.242Z,15.30
2022-09-07T06:18:53.126Z,14.93
2022-09-07T06:21:24.601Z,18.50
2022-09-07T06:23:55.364Z,21.63
2022-09-07T06:26:24.841Z,22.70
2022-09-07T06:28:57.805Z,18.37
2022-09-07T06:31:26.271Z,22.97
2022-09-07T06:33:56.667Z,20.53
2022-09-07T06:36:28.196Z,21.95
2022-09-07T06:39:01.589Z,20.65
2022-09-07T06:44:04.831Z,22.07
2022-09-07T06:49:06.077Z,28.23
2022-09-07T06:51:35.860Z,22.10
2022-09-07T06:56:38.518Z,26.93
2022-09-07T06:59:08.566Z,22.00
2022-09-07T07:01:38.349Z,22.50
2022-09-07T07:04:08.139Z,21.33
2022-09-07T07:06:39.463Z,19.17
2022-09-07T07:09:11.631Z,21.93
2022-09-07T07:11:43.485Z,22.93
2022-09-07T07:14:15.393Z,22.02
2022-09-07T07:16:45.316Z,23.70
2022-09-07T07:19:15.243Z,22.80
2022-09-07T07:22:07.906Z,22.75
2022-09-07T07:24:16.606Z,25.07
2022-09-07T07:26:48.025Z,27.37
2022-09-07T07:29:18.914Z,22.83
2022-09-07T07:31:49.144Z,23.87
2022-09-07T07:34:19.015Z,20.50
2022-09-07T07:36:48.786Z,26.20
2022-09-07T07:41:54.453Z,25.00
2022-09-07T07:44:22.006Z,30.20
2022-09-07T07:46:52.491Z,27.33
2022-09-07T07:49:22.285Z,28.97
2022-09-07T07:54:24.729Z,32.40
2022-09-07T07:56:54.489Z,26.93
2022-09-07T07:59:24.235Z,27.90
2022-09-07T08:01:54.156Z,25.43
2022-09-07T08:04:24.013Z,27.15
2022-09-07T08:06:53.762Z,26.87
2022-09-07T08:09:23.579Z,25.10
2022-09-07T08:11:53.548Z,28.77
2022-09-07T08:14:23.396Z,21.65
2022-09-07T08:16:53.148Z,22.43
2022-09-07T08:19:22.895Z,22.37
2022-09-07T08:21:53.015Z,22.65
2022-09-07T08:24:22.681Z,24.37
2022-09-07T08:26:52.706Z,19.95
2022-09-07T08:29:22.444Z,20.70
2022-09-07T08:31:52.676Z,20.25
2022-09-07T08:34:22.569Z,19.23
2022-09-07T08:36:52.012Z,19.45
2022-09-07T08:39:21.832Z,20.20
2022-09-07T08:42:08.466Z,22.50
2022-09-07T08:44:55.230Z,20.72
2022-09-07T08:47:48.999Z,20.00
2022-09-07T08:50:28.797Z,23.55
2022-09-07T08:53:04.545Z,24.63
2022-09-07T08:55:37.383Z,21.73
2022-09-07T08:58:47.630Z,21.68
2022-09-07T09:01:30.636Z,19.67
2022-09-07T09:03:33.053Z,22.48
2022-09-07T09:06:08.403Z,20.30
2022-09-07T09:08:50.097Z,21.90
2022-09-07T09:11:25.925Z,20.95
2022-09-07T09:14:14.831Z,20.97
2022-09-07T09:17:02.104Z,19.67
2022-09-07T09:20:01.424Z,19.43
2022-09-07T09:22:31.271Z,18.50
2022-09-07T09:25:06.718Z,16.00
2022-09-07T09:27:36.469Z,17.93
2022-09-07T09:30:17.952Z,20.57
2022-09-07T09:32:50.549Z,18.57
2022-09-07T09:35:29.752Z,17.80
2022-09-07T09:37:59.942Z,18.10
2022-09-07T09:40:32.713Z,19.60
2022-09-07T09:43:20.440Z,14.00
2022-09-07T09:48:36.084Z,13.28
2022-09-07T09:53:42.534Z,12.85
2022-09-07T09:56:12.234Z,13.70
2022-09-07T10:01:28.008Z,12.90
2022-09-07T10:04:01.355Z,12.13
2022-09-07T10:06:32.075Z,14.47
2022-09-07T10:09:05.010Z,13.23
2022-09-07T10:14:35.662Z,14.30
2022-09-07T10:17:32.302Z,9.53
2022-09-07T10:20:04.784Z,10.57
2022-09-07T10:22:37.030Z,13.40
2022-09-07T10:25:10.773Z,10.20
2022-09-07T10:27:40.860Z,10.93
2022-09-07T10:30:17.718Z,9.55
2022-09-07T10:32:55.978Z,8.93
2022-09-07T10:35:40.432Z,11.08
2022-09-07T10:38:25.813Z,10.00
2022-09-07T10:40:58.639Z,9.47
2022-09-07T10:43:49.801Z,8.10
2022-09-07T10:49:12.307Z,7.87
2022-09-07T10:51:44.811Z,6.30
2022-09-07T10:54:31.124Z,7.13
2022-09-07T10:57:06.954Z,6.67
2022-09-07T11:05:46.985Z,5.35
2022-09-07T11:08:19.729Z,5.33
2022-09-07T11:10:58.192Z,4.73
2022-09-07T11:13:31.290Z,5.40
2022-09-07T11:16:04.157Z,7.47
2022-09-07T11:18:41.972Z,7.03
2022-09-07T11:21:56.230Z,5.00
2022-09-07T11:23:57.791Z,7.90
2022-09-07T11:26:33.235Z,7.22
2022-09-07T11:31:42.380Z,9.40
2022-09-07T11:34:46.016Z,5.72
2022-09-07T11:37:33.428Z,4.60
2022-09-07T11:40:06.344Z,6.43
2022-09-07T11:42:43.489Z,5.47
2022-09-07T11:45:34.531Z,4.65
2022-09-07T11:48:19.574Z,6.47
2022-09-07T11:50:52.555Z,6.20
2022-09-07T11:53:31.339Z,6.55
2022-09-07T11:56:04.104Z,7.23
2022-09-07T11:58:53.262Z,6.37
2022-09-07T12:01:31.888Z,5.60
2022-09-07T12:04:15.847Z,6.63
2022-09-07T12:06:48.616Z,7.20
2022-09-07T12:09:37.472Z,4.35
2022-09-07T12:12:46.659Z,4.83
2022-09-07T12:15:26.751Z,5.90
2022-09-07T12:18:19.842Z,5.83
2022-09-07T12:20:50.482Z,5.50
2022-09-07T12:23:23.250Z,5.37
2022-09-07T12:25:53.595Z,5.53
2022-09-07T12:28:29.233Z,4.10
2022-09-07T12:31:04.460Z,5.13
2022-09-07T12:33:39.252Z,4.75
2022-09-07T12:36:32.663Z,4.47
2022-09-07T12:39:25.009Z,3.63
2022-09-07T12:44:40.518Z,7.10
2022-09-07T12:47:16.121Z,7.37
2022-09-07T12:50:06.175Z,7.57
2022-09-07T12:52:47.612Z,5.10
2022-09-07T12:58:23.787Z,4.97
2022-09-07T13:01:05.227Z,4.87
2022-09-07T13:03:50.247Z,4.77
2022-09-07T13:09:37.524Z,3.70
2022-09-07T13:14:59.650Z,5.33
2022-09-07T13:17:41.759Z,4.80
2022-09-07T13:20:21.034Z,6.30
2022-09-07T13:22:53.814Z,7.63
2022-09-07T13:25:29.596Z,6.90
2022-09-07T13:28:02.637Z,6.20
2022-09-07T13:30:47.272Z,4.20
2022-09-07T13:33:32.543Z,5.07
2022-09-07T13:36:05.121Z,8.60
2022-09-07T13:38:36.818Z,4.17
2022-09-07T13:41:14.973Z,4.17
2022-09-07T13:43:51.724Z,4.33
2022-09-07T13:46:42.019Z,7.30
2022-09-07T13:49:20.122Z,5.90
2022-09-07T13:52:07.735Z,4.47
2022-09-07T13:54:51.599Z,7.30
2022-09-07T13:57:33.247Z,4.67
2022-09-07T14:00:03.114Z,3.90
2022-09-07T14:02:37.474Z,5.37
2022-09-07T14:05:11.435Z,6.00
2022-09-07T14:07:44.221Z,6.50
2022-09-07T14:10:24.905Z,3.25
2022-09-07T14:13:08.580Z,4.10
2022-09-07T14:15:46.940Z,5.00
2022-09-07T14:18:19.358Z,3.03
2022-09-07T14:20:53.805Z,4.33
2022-09-07T14:23:35.526Z,2.53
2022-09-07T14:26:20.009Z,2.57
2022-09-07T14:28:52.449Z,7.53
2022-09-07T14:31:25.236Z,5.80
2022-09-07T14:33:57.539Z,3.27
2022-09-07T14:36:44.076Z,3.17
2022-09-07T14:39:09.780Z,4.07
2022-09-07T14:41:41.820Z,5.70
2022-09-07T14:44:35.432Z,4.77
2022-09-07T14:47:12.486Z,4.67
2022-09-07T14:49:43.637Z,3.37
2022-09-07T14:52:16.940Z,3.60
2022-09-07T14:54:49.698Z,3.73
2022-09-07T14:57:25.582Z,2.08
2022-09-07T14:59:57.209Z,3.42
2022-09-07T15:02:36.193Z,3.58
2022-09-07T15:05:23.066Z,2.58
2022-09-07T15:07:57.940Z,4.77
2022-09-07T15:10:35.178Z,3.45
2022-09-07T15:13:07.114Z,7.23
2022-09-07T15:15:40.313Z,4.43
2022-09-07T15:18:53.316Z,3.07
2022-09-07T15:21:28.369Z,4.77
2022-09-07T15:23:59.595Z,3.10
2022-09-07T15:29:12.857Z,3.63
2022-09-07T15:31:49.737Z,5.07
2022-09-07T15:34:20.029Z,4.55
2022-09-07T15:36:52.941Z,3.27
2022-09-07T15:39:25.807Z,4.40
2022-09-07T15:41:55.777Z,3.20
2022-09-07T15:44:28.059Z,2.87
2022-09-07T15:49:29.137Z,2.10
2022-09-07T15:52:06.631Z,2.20
2022-09-07T15:54:31.105Z,1.95
2022-09-07T15:59:33.461Z,3.40
2022-09-07T16:02:03.358Z,3.90
2022-09-07T16:04:33.322Z,3.63
2022-09-07T16:07:03.049Z,2.37
2022-09-07T16:09:32.764Z,4.80
2022-09-07T16:14:35.111Z,3.90
2022-09-07T16:19:40.633Z,2.93
2022-09-07T16:22:09.961Z,3.03
2022-09-07T16:24:40.304Z,2.50
2022-09-07T16:27:10.704Z,3.07
2022-09-07T16:29:40.254Z,2.75
2022-09-07T16:34:42.829Z,4.70
2022-09-07T16:37:12.663Z,2.00
2022-09-07T16:39:42.807Z,3.87
2022-09-07T16:42:12.667Z,1.95
2022-09-07T16:44:42.670Z,2.00
2022-09-07T16:47:12.738Z,2.10
2022-09-07T16:49:42.461Z,1.97
2022-09-07T16:52:12.194Z,3.22
2022-09-07T16:54:41.978Z,3.77
2022-09-07T16:57:11.722Z,3.77
2022-09-07T16:59:41.455Z,11.23
2022-09-07T17:02:18.479Z,2.58
2022-09-07T17:04:48.032Z,2.45
2022-09-07T17:07:17.756Z,6.20
2022-09-07T17:09:47.473Z,5.53
2022-09-07T17:12:16.933Z,3.30
2022-09-07T17:14:46.647Z,3.70
2022-09-07T17:17:16.414Z,4.20
2022-09-07T17:19:46.132Z,3.27
2022-09-07T17:22:16.200Z,3.23
2022-09-07T17:24:46.454Z,4.37
2022-09-07T17:27:17.112Z,5.10
2022-09-07T17:29:46.863Z,4.93
2022-09-07T17:32:25.039Z,6.28
2022-09-07T17:34:48.529Z,2.10
2022-09-07T17:37:18.253Z,5.70
2022-09-07T17:39:48.118Z,4.90
2022-09-07T17:42:17.954Z,3.37
2022-09-07T17:44:52.794Z,3.37
2022-09-07T17:47:19.089Z,3.90
2022-09-07T17:49:48.818Z,2.23
2022-09-07T17:52:18.539Z,4.37
2022-09-07T17:54:48.808Z,4.63
2022-09-07T17:57:18.241Z,5.25
2022-09-07T18:02:21.072Z,6.22
2022-09-07T18:04:50.921Z,10.53
2022-09-07T18:07:20.597Z,4.70
2022-09-07T18:09:50.333Z,3.40
2022-09-07T18:12:20.074Z,4.87
2022-09-07T18:14:49.801Z,3.87
2022-09-07T18:17:19.815Z,6.70
2022-09-07T18:19:49.544Z,8.07
2022-09-07T18:22:19.451Z,3.75
2022-09-07T18:24:50.848Z,3.87
2022-09-07T18:27:21.321Z,3.70
2022-09-07T18:29:51.047Z,4.57
2022-09-07T18:32:20.477Z,6.77
2022-09-07T18:34:50.868Z,6.30
2022-09-07T18:37:20.771Z,5.60
2022-09-07T18:39:50.563Z,3.40
2022-09-07T18:42:20.042Z,3.45
2022-09-07T18:47:27.241Z,3.80
2022-09-07T18:49:52.765Z,8.30
2022-09-07T18:54:54.825Z,10.48
2022-09-07T18:57:25.137Z,10.60
2022-09-07T18:59:54.935Z,3.53
2022-09-07T19:02:24.802Z,7.00
2022-09-07T19:07:29.542Z,5.67
2022-09-07T19:09:58.136Z,4.35
2022-09-07T19:12:27.790Z,2.70
2022-09-07T19:14:57.513Z,6.47
2022-09-07T19:17:27.537Z,5.37
2022-09-07T19:19:57.624Z,6.17
2022-09-07T19:22:27.612Z,5.03
2022-09-07T19:24:57.643Z,5.15
2022-09-07T19:27:27.732Z,7.60
2022-09-07T19:29:57.461Z,6.33
2022-09-07T19:32:26.910Z,5.77
2022-09-07T19:34:56.637Z,7.03
2022-09-07T19:37:28.363Z,5.33
2022-09-07T19:39:58.799Z,6.17
2022-09-07T19:42:28.729Z,6.90
2022-09-07T19:44:58.635Z,5.93
2022-09-07T19:47:28.729Z,6.53
2022-09-07T19:49:58.464Z,7.43
2022-09-07T19:52:28.182Z,7.03
2022-09-07T19:54:59.546Z,5.00
2022-09-07T19:57:29.337Z,5.80
2022-09-07T20:00:00.141Z,5.83
2022-09-07T20:02:29.863Z,5.20
2022-09-07T20:04:59.587Z,7.73
2022-09-07T20:07:29.323Z,4.13
2022-09-07T20:09:59.039Z,4.83
2022-09-07T20:12:28.767Z,4.17
2022-09-07T20:14:58.491Z,2.80
2022-09-07T20:17:34.449Z,4.50
2022-09-07T20:20:00.307Z,3.35
2022-09-07T20:22:31.301Z,7.47
2022-09-07T20:25:01.029Z,9.00
2022-09-07T20:27:30.923Z,4.00
2022-09-07T20:30:00.951Z,4.97
2022-09-07T20:32:31.044Z,7.07
2022-09-07T20:35:01.563Z,8.13
2022-09-07T20:37:31.581Z,3.30
2022-09-07T20:40:01.778Z,6.62
2022-09-07T20:42:31.535Z,7.73
2022-09-07T20:45:02.206Z,4.80
2022-09-07T20:47:32.017Z,6.03
2022-09-07T20:50:01.746Z,8.67
2022-09-07T20:52:31.538Z,5.50
2022-09-07T20:55:01.551Z,3.58
2022-09-07T20:57:31.579Z,5.70
2022-09-07T21:00:01.679Z,4.28
2022-09-07T21:02:32.635Z,4.10
2022-09-07T21:05:02.355Z,7.73
2022-09-07T21:07:32.082Z,4.80
2022-09-07T21:10:06.042Z,4.13
2022-09-07T21:12:33.708Z,6.17
2022-09-07T21:15:03.645Z,6.83
2022-09-07T21:17:33.760Z,5.17
2022-09-07T21:20:03.827Z,5.33
2022-09-07T21:22:33.549Z,7.03
2022-09-07T21:25:03.578Z,6.22
2022-09-07T21:27:38.219Z,4.10
2022-09-07T21:30:08.861Z,7.45
2022-09-07T21:32:40.258Z,7.83
2022-09-07T21:35:13.061Z,7.03
2022-09-07T21:37:42.871Z,10.67
2022-09-07T21:40:13.523Z,5.50
2022-09-07T21:42:43.231Z,3.03
2022-09-07T21:45:12.952Z,3.72
2022-09-07T21:47:42.673Z,4.90
2022-09-07T21:50:14.200Z,4.85
2022-09-07T21:52:43.922Z,4.17
2022-09-07T21:55:13.648Z,5.53
2022-09-07T21:57:43.680Z,4.60
2022-09-07T22:00:15.998Z,5.97
2022-09-07T22:02:45.787Z,5.03
2022-09-07T22:05:15.641Z,4.95
2022-09-07T22:07:45.099Z,8.20
2022-09-07T22:10:15.972Z,5.72
2022-09-07T22:12:45.693Z,5.20
2022-09-07T22:15:15.484Z,8.08
2022-09-07T22:17:46.388Z,7.53
2022-09-07T22:20:16.238Z,6.17
2022-09-07T22:22:46.427Z,3.17
2022-09-07T22:25:16.216Z,6.87
2022-09-07T22:27:45.948Z,7.10
2022-09-07T22:30:15.821Z,6.07
2022-09-07T22:32:49.245Z,5.40
2022-09-07T22:35:20.058Z,7.03
2022-09-07T22:37:50.482Z,8.70
2022-09-07T22:40:19.982Z,7.97
2022-09-07T22:42:49.693Z,6.87
2022-09-07T22:45:19.516Z,7.03
2022-09-07T22:47:49.263Z,4.65
2022-09-07T22:50:20.235Z,8.38
2022-09-07T22:52:50.317Z,4.37
2022-09-07T22:55:19.757Z,5.17
2022-09-07T22:57:49.482Z,6.63
2022-09-07T23:00:19.122Z,9.50
2022-09-07T23:02:49.219Z,5.87
2022-09-07T23:05:18.720Z,6.33
2022-09-07T23:07:49.812Z,3.73
2022-09-07T23:10:19.704Z,5.94
2022-09-07T23:12:49.494Z,5.20
2022-09-07T23:15:19.212Z,3.27
2022-09-07T23:17:48.937Z,3.93
2022-09-07T23:20:18.727Z,6.47
2022-09-07T23:22:48.884Z,4.25
2022-09-07T23:25:18.653Z,4.97
2022-09-07T23:27:48.860Z,5.75
2022-09-07T23:30:18.771Z,5.67
2022-09-07T23:32:48.215Z,8.90
2022-09-07T23:35:17.895Z,7.90
2022-09-07T23:37:47.950Z,8.28
2022-09-07T23:40:17.943Z,6.40
2022-09-07T23:42:48.404Z,6.43
2022-09-07T23:45:18.107Z,6.07
2022-09-07T23:47:47.829Z,5.73
2022-09-07T23:50:17.797Z,5.83
2022-09-07T23:52:47.389Z,6.60
2022-09-07T23:55:17.202Z,5.30
2022-09-07T23:57:47.061Z,9.63
